Aviation Digital Data Service (ADDS)

Output produced by METARs form (1308 UTC 24 August 2019)
found at http://www.aviationweather.gov/metar/data/
 
METAR text: VVNB 241300Z 05006KT 020V100 8000 FEW020 BKN046 26/25 Q1005 NOSIG
Conditions at: VVNB (HANOI/NOIBAI INT, VN) observed 1300 UTC 24 August 2019
Temperature: 26.0°C (79°F)
Dewpoint: 25.0°C (77°F) [RH = 94%]
Pressure (altimeter): 29.68 inches Hg (1005.0 mb)
Winds: from the NE (50 degrees) at 7 MPH (6 knots; 3.1 m/s)
Visibility: 5 miles ( 8 km)
Ceiling: 4600 feet AGL
Clouds: few clouds at 2000 feet AGL
broken clouds at 4600 feet AGL
Weather: no significant weather observed at this time

METAR text: VVNB 241230Z 06005KT 020V140 7000 FEW020 BKN046 26/25 Q1005 NOSIG
Conditions at: VVNB (HANOI/NOIBAI INT, VN) observed 1230 UTC 24 August 2019
Temperature: 26.0°C (79°F)
Dewpoint: 25.0°C (77°F) [RH = 94%]
Pressure (altimeter): 29.68 inches Hg (1005.0 mb)
Winds: from the ENE (60 degrees) at 6 MPH (5 knots; 2.6 m/s)
Visibility: 4 miles ( 7 km)
Ceiling: 4600 feet AGL
Clouds: few clouds at 2000 feet AGL
broken clouds at 4600 feet AGL
Weather: no significant weather observed at this time

METAR text: VVNB 241200Z 08006KT 040V110 8000 FEW020 BKN046 26/25 Q1005 NOSIG
Conditions at: VVNB (HANOI/NOIBAI INT, VN) observed 1200 UTC 24 August 2019
Temperature: 26.0°C (79°F)
Dewpoint: 25.0°C (77°F) [RH = 94%]
Pressure (altimeter): 29.68 inches Hg (1005.0 mb)
Winds: from the E (80 degrees) at 7 MPH (6 knots; 3.1 m/s)
Visibility: 5 miles ( 8 km)
Ceiling: 4600 feet AGL
Clouds: few clouds at 2000 feet AGL
broken clouds at 4600 feet AGL
Weather: no significant weather observed at this time

METAR text: VVNB 241130Z VRB09KT 9999 FEW048 26/25 Q1005 NOSIG
Conditions at: VVNB (HANOI/NOIBAI INT, VN) observed 1130 UTC 24 August 2019
Temperature: 26.0°C (79°F)
Dewpoint: 25.0°C (77°F) [RH = 94%]
Pressure (altimeter): 29.68 inches Hg (1005.0 mb)
Winds: variable direction winds at 10 MPH (9 knots; 4.6 m/s)
Visibility: 6 or more miles (10+ km)
Ceiling: at least 12,000 feet AGL
Clouds: few clouds at 4800 feet AGL
Weather: no significant weather observed at this time

METAR text: VVNB 241100Z 18004KT 140V220 9999 -RA SCT048 26/24 Q1004 NOSIG
Conditions at: VVNB (HANOI/NOIBAI INT, VN) observed 1100 UTC 24 August 2019
Temperature: 26.0°C (79°F)
Dewpoint: 24.0°C (75°F) [RH = 89%]
Pressure (altimeter): 29.65 inches Hg (1004.0 mb)
Winds: from the S (180 degrees) at 5 MPH (4 knots; 2.1 m/s)
Visibility: 6 or more miles (10+ km)
Ceiling: at least 12,000 feet AGL
Clouds: scattered clouds at 4800 feet AGL
Weather: -RA  (light rain)

METAR text: VVNB 241030Z 18006KT 120V230 6000 RA VCTS FEW030CB FEW044 26/25 Q1004 NOSIG
Conditions at: VVNB (HANOI/NOIBAI INT, VN) observed 1030 UTC 24 August 2019
Temperature: 26.0°C (79°F)
Dewpoint: 25.0°C (77°F) [RH = 94%]
Pressure (altimeter): 29.65 inches Hg (1004.0 mb)
Winds: from the S (180 degrees) at 7 MPH (6 knots; 3.1 m/s)
Visibility: 4 miles ( 6 km)
Ceiling: at least 12,000 feet AGL
Clouds: few clouds at 3000 feet AGL
few clouds at 4400 feet AGL
Weather: RA VCTS  (moderate rain, thunderstorm in vicinity)

METAR text: VVNB 241000Z 13008KT 9000 -RA VCTS FEW030CB FEW044 26/24 Q1004 TEMPO 4000 TSRA
Conditions at: VVNB (HANOI/NOIBAI INT, VN) observed 1000 UTC 24 August 2019
Temperature: 26.0°C (79°F)
Dewpoint: 24.0°C (75°F) [RH = 89%]
Pressure (altimeter): 29.65 inches Hg (1004.0 mb)
Winds: from the SE (130 degrees) at 9 MPH (8 knots; 4.1 m/s)
Visibility: 6 miles ( 9 km)
Ceiling: at least 12,000 feet AGL
Clouds: few clouds at 3000 feet AGL
few clouds at 4400 feet AGL
Weather: -RA VCTS  (light rain, thunderstorm in vicinity)

METAR text: VVNB 240930Z 10012KT 8000 -RA VCTS FEW014 FEW030CB BKN070 27/25 Q1003 TEMPO 4000 TSRA
Conditions at: VVNB (HANOI/NOIBAI INT, VN) observed 0930 UTC 24 August 2019
Temperature: 27.0°C (81°F)
Dewpoint: 25.0°C (77°F) [RH = 89%]
Pressure (altimeter): 29.62 inches Hg (1003.0 mb)
Winds: from the E (100 degrees) at 14 MPH (12 knots; 6.2 m/s)
Visibility: 5 miles ( 8 km)
Ceiling: 7000 feet AGL
Clouds: few clouds at 1400 feet AGL
few clouds at 3000 feet AGL
broken clouds at 7000 feet AGL
Weather: -RA VCTS  (light rain, thunderstorm in vicinity)

METAR text: VVNB 240900Z 08017KT 4000 TSRA FEW027CB SCT039 27/25 Q1005 TEMPO FM0900 TL0930 1500 +TSRA
Conditions at: VVNB (HANOI/NOIBAI INT, VN) observed 0900 UTC 24 August 2019
Temperature: 27.0°C (81°F)
Dewpoint: 25.0°C (77°F) [RH = 89%]
Pressure (altimeter): 29.68 inches Hg (1005.0 mb)
Winds: from the E (80 degrees) at 20 MPH (17 knots; 8.7 m/s)
Visibility: 2.49 miles (4.01 km)
Ceiling: at least 12,000 feet AGL
Clouds: few clouds at 2700 feet AGL
scattered clouds at 3900 feet AGL
Weather: TSRA  (rain associated with thunderstorm(s))

METAR text: VVNB 240830Z VRB02KT 9999 FEW033 33/25 Q1004 NOSIG
Conditions at: VVNB (HANOI/NOIBAI INT, VN) observed 0830 UTC 24 August 2019
Temperature: 33.0°C (91°F)
Dewpoint: 25.0°C (77°F) [RH = 63%]
Pressure (altimeter): 29.65 inches Hg (1004.0 mb)
Winds: variable direction winds at 2 MPH (2 knots; 1.0 m/s)
Visibility: 6 or more miles (10+ km)
Ceiling: at least 12,000 feet AGL
Clouds: few clouds at 3300 feet AGL
Weather: no significant weather observed at this time

METAR text: VVNB 240800Z 29006KT 250V320 9999 FEW037 34/25 Q1002 NOSIG
Conditions at: VVNB (HANOI/NOIBAI INT, VN) observed 0800 UTC 24 August 2019
Temperature: 34.0°C (93°F)
Dewpoint: 25.0°C (77°F) [RH = 60%]
Pressure (altimeter): 29.59 inches Hg (1002.0 mb)
Winds: from the WNW (290 degrees) at 7 MPH (6 knots; 3.1 m/s)
Visibility: 6 or more miles (10+ km)
Ceiling: at least 12,000 feet AGL
Clouds: few clouds at 3700 feet AGL
Weather: no significant weather observed at this time

METAR text: VVNB 240730Z 26007KT 190V300 9999 FEW037 34/26 Q1003 NOSIG
Conditions at: VVNB (HANOI/NOIBAI INT, VN) observed 0730 UTC 24 August 2019
Temperature: 34.0°C (93°F)
Dewpoint: 26.0°C (79°F) [RH = 63%]
Pressure (altimeter): 29.62 inches Hg (1003.0 mb)
Winds: from the W (260 degrees) at 8 MPH (7 knots; 3.6 m/s)
Visibility: 6 or more miles (10+ km)
Ceiling: at least 12,000 feet AGL
Clouds: few clouds at 3700 feet AGL
Weather: no significant weather observed at this time

METAR text: VVNB 240700Z 26008KT 230V290 9999 FEW037 34/26 Q1003 NOSIG
Conditions at: VVNB (HANOI/NOIBAI INT, VN) observed 0700 UTC 24 August 2019
Temperature: 34.0°C (93°F)
Dewpoint: 26.0°C (79°F) [RH = 63%]
Pressure (altimeter): 29.62 inches Hg (1003.0 mb)
Winds: from the W (260 degrees) at 9 MPH (8 knots; 4.1 m/s)
Visibility: 6 or more miles (10+ km)
Ceiling: at least 12,000 feet AGL
Clouds: few clouds at 3700 feet AGL
Weather: no significant weather observed at this time

METAR text: VVNB 240630Z VRB04KT CAVOK 34/27 Q1004 NOSIG
Conditions at: VVNB (HANOI/NOIBAI INT, VN) observed 0630 UTC 24 August 2019
Temperature: 34.0°C (93°F)
Dewpoint: 27.0°C (81°F) [RH = 67%]
Pressure (altimeter): 29.65 inches Hg (1004.0 mb)
Winds: variable direction winds at 5 MPH (4 knots; 2.1 m/s)
Visibility: 6 or more miles (10+ km)
Ceiling: ceiling and visibility are OK
Clouds: unknown
Weather: no significant weather observed at this time

METAR text: VVNB 240600Z 29006KT 260V340 CAVOK 33/26 Q1005 NOSIG
Conditions at: VVNB (HANOI/NOIBAI INT, VN) observed 0600 UTC 24 August 2019
Temperature: 33.0°C (91°F)
Dewpoint: 26.0°C (79°F) [RH = 67%]
Pressure (altimeter): 29.68 inches Hg (1005.0 mb)
Winds: from the WNW (290 degrees) at 7 MPH (6 knots; 3.1 m/s)
Visibility: 6 or more miles (10+ km)
Ceiling: ceiling and visibility are OK
Clouds: unknown
Weather: no significant weather observed at this time

METAR text: VVNB 240530Z 29005KT CAVOK 33/26 Q1005 NOSIG
Conditions at: VVNB (HANOI/NOIBAI INT, VN) observed 0530 UTC 24 August 2019
Temperature: 33.0°C (91°F)
Dewpoint: 26.0°C (79°F) [RH = 67%]
Pressure (altimeter): 29.68 inches Hg (1005.0 mb)
Winds: from the WNW (290 degrees) at 6 MPH (5 knots; 2.6 m/s)
Visibility: 6 or more miles (10+ km)
Ceiling: ceiling and visibility are OK
Clouds: unknown
Weather: no significant weather observed at this time

METAR text: VVNB 240500Z 30005KT 240V360 CAVOK 32/26 Q1006 NOSIG
Conditions at: VVNB (HANOI/NOIBAI INT, VN) observed 0500 UTC 24 August 2019
Temperature: 32.0°C (90°F)
Dewpoint: 26.0°C (79°F) [RH = 71%]
Pressure (altimeter): 29.70 inches Hg (1006.0 mb)
Winds: from the WNW (300 degrees) at 6 MPH (5 knots; 2.6 m/s)
Visibility: 6 or more miles (10+ km)
Ceiling: ceiling and visibility are OK
Clouds: unknown
Weather: no significant weather observed at this time

METAR text: VVNB 240430Z 30005KT CAVOK 31/26 Q1006 NOSIG
Conditions at: VVNB (HANOI/NOIBAI INT, VN) observed 0430 UTC 24 August 2019
Temperature: 31.0°C (88°F)
Dewpoint: 26.0°C (79°F) [RH = 75%]
Pressure (altimeter): 29.70 inches Hg (1006.0 mb)
Winds: from the WNW (300 degrees) at 6 MPH (5 knots; 2.6 m/s)
Visibility: 6 or more miles (10+ km)
Ceiling: ceiling and visibility are OK
Clouds: unknown
Weather: no significant weather observed at this time

METAR text: VVNB 240400Z 29005KT 240V340 CAVOK 31/26 Q1007 NOSIG
Conditions at: VVNB (HANOI/NOIBAI INT, VN) observed 0400 UTC 24 August 2019
Temperature: 31.0°C (88°F)
Dewpoint: 26.0°C (79°F) [RH = 75%]
Pressure (altimeter): 29.73 inches Hg (1007.0 mb)
Winds: from the WNW (290 degrees) at 6 MPH (5 knots; 2.6 m/s)
Visibility: 6 or more miles (10+ km)
Ceiling: ceiling and visibility are OK
Clouds: unknown
Weather: no significant weather observed at this time

METAR text: VVNB 240330Z 29006KT CAVOK 30/26 Q1007 NOSIG
Conditions at: VVNB (HANOI/NOIBAI INT, VN) observed 0330 UTC 24 August 2019
Temperature: 30.0°C (86°F)
Dewpoint: 26.0°C (79°F) [RH = 79%]
Pressure (altimeter): 29.73 inches Hg (1007.0 mb)
Winds: from the WNW (290 degrees) at 7 MPH (6 knots; 3.1 m/s)
Visibility: 6 or more miles (10+ km)
Ceiling: ceiling and visibility are OK
Clouds: unknown
Weather: no significant weather observed at this time

METAR text: VVNB 240300Z 29006KT CAVOK 30/25 Q1007 NOSIG
Conditions at: VVNB (HANOI/NOIBAI INT, VN) observed 0300 UTC 24 August 2019
Temperature: 30.0°C (86°F)
Dewpoint: 25.0°C (77°F) [RH = 75%]
Pressure (altimeter): 29.73 inches Hg (1007.0 mb)
Winds: from the WNW (290 degrees) at 7 MPH (6 knots; 3.1 m/s)
Visibility: 6 or more miles (10+ km)
Ceiling: ceiling and visibility are OK
Clouds: unknown
Weather: no significant weather observed at this time

METAR text: VVNB 240230Z 29006KT 260V350 8000 NSC 29/25 Q1007 NOSIG
Conditions at: VVNB (HANOI/NOIBAI INT, VN) observed 0230 UTC 24 August 2019
Temperature: 29.0°C (84°F)
Dewpoint: 25.0°C (77°F) [RH = 79%]
Pressure (altimeter): 29.73 inches Hg (1007.0 mb)
Winds: from the WNW (290 degrees) at 7 MPH (6 knots; 3.1 m/s)
Visibility: 5 miles ( 8 km)
Ceiling: at least 12,000 feet AGL
Clouds: sky clear below 12,000 feet AGL
Weather: no significant weather observed at this time

METAR text: VVNB 240200Z 30005KT 270V330 7000 FEW006 28/25 Q1007 NOSIG
Conditions at: VVNB (HANOI/NOIBAI INT, VN) observed 0200 UTC 24 August 2019
Temperature: 28.0°C (82°F)
Dewpoint: 25.0°C (77°F) [RH = 84%]
Pressure (altimeter): 29.73 inches Hg (1007.0 mb)
Winds: from the WNW (300 degrees) at 6 MPH (5 knots; 2.6 m/s)
Visibility: 4 miles ( 7 km)
Ceiling: at least 12,000 feet AGL
Clouds: few clouds at 600 feet AGL
Weather: no significant weather observed at this time

METAR text: VVNB 240130Z 33004KT 260V010 5000 BR FEW006 27/25 Q1007 BECMG FM0200 6000 NSW
Conditions at: VVNB (HANOI/NOIBAI INT, VN) observed 0130 UTC 24 August 2019
Temperature: 27.0°C (81°F)
Dewpoint: 25.0°C (77°F) [RH = 89%]
Pressure (altimeter): 29.73 inches Hg (1007.0 mb)
Winds: from the NNW (330 degrees) at 5 MPH (4 knots; 2.1 m/s)
Visibility: 3 miles ( 5 km)
Ceiling: at least 12,000 feet AGL
Clouds: few clouds at 600 feet AGL
Weather: BR  (mist)

METAR text: VVNB 240100Z 32003KT 260V010 4700 BR 26/24 Q1007 BECMG 6000 NSW
Conditions at: VVNB (HANOI/NOIBAI INT, VN) observed 0100 UTC 24 August 2019
Temperature: 26.0°C (79°F)
Dewpoint: 24.0°C (75°F) [RH = 89%]
Pressure (altimeter): 29.73 inches Hg (1007.0 mb)
Winds: from the NW (320 degrees) at 3 MPH (3 knots; 1.5 m/s)
Visibility: 2.92 miles (4.70 km)
Ceiling: unknown
Clouds: missing
Weather: BR  (mist)

METAR text: VVNB 240030Z 29004KT 4100 BR FEW010 26/25 Q1007 NOSIG
Conditions at: VVNB (HANOI/NOIBAI INT, VN) observed 0030 UTC 24 August 2019
Temperature: 26.0°C (79°F)
Dewpoint: 25.0°C (77°F) [RH = 94%]
Pressure (altimeter): 29.73 inches Hg (1007.0 mb)
Winds: from the WNW (290 degrees) at 5 MPH (4 knots; 2.1 m/s)
Visibility: 2.55 miles (4.10 km)
Ceiling: at least 12,000 feet AGL
Clouds: few clouds at 1000 feet AGL
Weather: BR  (mist)

METAR text: VVNB 240000Z 30005KT 3300 BR FEW008 25/24 Q1007 BECMG FM0100 6000 NSW
Conditions at: VVNB (HANOI/NOIBAI INT, VN) observed 0000 UTC 24 August 2019
Temperature: 25.0°C (77°F)
Dewpoint: 24.0°C (75°F) [RH = 94%]
Pressure (altimeter): 29.73 inches Hg (1007.0 mb)
Winds: from the WNW (300 degrees) at 6 MPH (5 knots; 2.6 m/s)
Visibility: 2.05 miles (3.30 km)
Ceiling: at least 12,000 feet AGL
Clouds: few clouds at 800 feet AGL
Weather: BR  (mist)

METAR text: VVNB 232330Z 30003KT 3800 BR NSC 25/24 Q1007 BECMG FM0100 6000 NSW
Conditions at: VVNB (HANOI/NOIBAI INT, VN) observed 2330 UTC 23 August 2019
Temperature: 25.0°C (77°F)
Dewpoint: 24.0°C (75°F) [RH = 94%]
Pressure (altimeter): 29.73 inches Hg (1007.0 mb)
Winds: from the WNW (300 degrees) at 3 MPH (3 knots; 1.5 m/s)
Visibility: 2.36 miles (3.80 km)
Ceiling: at least 12,000 feet AGL
Clouds: sky clear below 12,000 feet AGL
Weather: BR  (mist)

METAR text: VVNB 232300Z 33004KT 260V350 3300 BR NSC 25/24 Q1007 NOSIG
Conditions at: VVNB (HANOI/NOIBAI INT, VN) observed 2300 UTC 23 August 2019
Temperature: 25.0°C (77°F)
Dewpoint: 24.0°C (75°F) [RH = 94%]
Pressure (altimeter): 29.73 inches Hg (1007.0 mb)
Winds: from the NNW (330 degrees) at 5 MPH (4 knots; 2.1 m/s)
Visibility: 2.05 miles (3.30 km)
Ceiling: at least 12,000 feet AGL
Clouds: sky clear below 12,000 feet AGL
Weather: BR  (mist)

METAR text: VVNB 232230Z 32004KT 4600 BR NSC 24/24 Q1007 NOSIG
Conditions at: VVNB (HANOI/NOIBAI INT, VN) observed 2230 UTC 23 August 2019
Temperature: 24.0°C (75°F)
Dewpoint: 24.0°C (75°F) [RH = 100%]
Pressure (altimeter): 29.73 inches Hg (1007.0 mb)
Winds: from the NW (320 degrees) at 5 MPH (4 knots; 2.1 m/s)
Visibility: 2.86 miles (4.60 km)
Ceiling: at least 12,000 feet AGL
Clouds: sky clear below 12,000 feet AGL
Weather: BR  (mist)

METAR text: VVNB 232200Z 33004KT 5000 BR NSC 24/24 Q1007 BECMG 3000 BR
Conditions at: VVNB (HANOI/NOIBAI INT, VN) observed 2200 UTC 23 August 2019
Temperature: 24.0°C (75°F)
Dewpoint: 24.0°C (75°F) [RH = 100%]
Pressure (altimeter): 29.73 inches Hg (1007.0 mb)
Winds: from the NNW (330 degrees) at 5 MPH (4 knots; 2.1 m/s)
Visibility: 3 miles ( 5 km)
Ceiling: at least 12,000 feet AGL
Clouds: sky clear below 12,000 feet AGL
Weather: BR  (mist)

METAR text: VVNB 232130Z 33004KT 6000 NSC 25/24 Q1007 NOSIG
Conditions at: VVNB (HANOI/NOIBAI INT, VN) observed 2130 UTC 23 August 2019
Temperature: 25.0°C (77°F)
Dewpoint: 24.0°C (75°F) [RH = 94%]
Pressure (altimeter): 29.73 inches Hg (1007.0 mb)
Winds: from the NNW (330 degrees) at 5 MPH (4 knots; 2.1 m/s)
Visibility: 4 miles ( 6 km)
Ceiling: at least 12,000 feet AGL
Clouds: sky clear below 12,000 feet AGL
Weather: no significant weather observed at this time

METAR text: VVNB 232100Z 30003KT 6000 NSC 24/24 Q1006 NOSIG
Conditions at: VVNB (HANOI/NOIBAI INT, VN) observed 2100 UTC 23 August 2019
Temperature: 24.0°C (75°F)
Dewpoint: 24.0°C (75°F) [RH = 100%]
Pressure (altimeter): 29.70 inches Hg (1006.0 mb)
Winds: from the WNW (300 degrees) at 3 MPH (3 knots; 1.5 m/s)
Visibility: 4 miles ( 6 km)
Ceiling: at least 12,000 feet AGL
Clouds: sky clear below 12,000 feet AGL
Weather: no significant weather observed at this time

METAR text: VVNB 232030Z VRB02KT 7000 NSC 25/24 Q1006 NOSIG
Conditions at: VVNB (HANOI/NOIBAI INT, VN) observed 2030 UTC 23 August 2019
Temperature: 25.0°C (77°F)
Dewpoint: 24.0°C (75°F) [RH = 94%]
Pressure (altimeter): 29.70 inches Hg (1006.0 mb)
Winds: variable direction winds at 2 MPH (2 knots; 1.0 m/s)
Visibility: 4 miles ( 7 km)
Ceiling: at least 12,000 feet AGL
Clouds: sky clear below 12,000 feet AGL
Weather: no significant weather observed at this time

METAR text: VVNB 232000Z VRB02KT 8000 NSC 25/24 Q1006 NOSIG
Conditions at: VVNB (HANOI/NOIBAI INT, VN) observed 2000 UTC 23 August 2019
Temperature: 25.0°C (77°F)
Dewpoint: 24.0°C (75°F) [RH = 94%]
Pressure (altimeter): 29.70 inches Hg (1006.0 mb)
Winds: variable direction winds at 2 MPH (2 knots; 1.0 m/s)
Visibility: 5 miles ( 8 km)
Ceiling: at least 12,000 feet AGL
Clouds: sky clear below 12,000 feet AGL
Weather: no significant weather observed at this time

METAR text: VVNB 231930Z 33002KT 8000 NSC 25/24 Q1007 NOSIG
Conditions at: VVNB (HANOI/NOIBAI INT, VN) observed 1930 UTC 23 August 2019
Temperature: 25.0°C (77°F)
Dewpoint: 24.0°C (75°F) [RH = 94%]
Pressure (altimeter): 29.73 inches Hg (1007.0 mb)
Winds: from the NNW (330 degrees) at 2 MPH (2 knots; 1.0 m/s)
Visibility: 5 miles ( 8 km)
Ceiling: at least 12,000 feet AGL
Clouds: sky clear below 12,000 feet AGL
Weather: no significant weather observed at this time

METAR text: VVNB 231900Z 34002KT 9000 NSC 25/24 Q1007 NOSIG
Conditions at: VVNB (HANOI/NOIBAI INT, VN) observed 1900 UTC 23 August 2019
Temperature: 25.0°C (77°F)
Dewpoint: 24.0°C (75°F) [RH = 94%]
Pressure (altimeter): 29.73 inches Hg (1007.0 mb)
Winds: from the NNW (340 degrees) at 2 MPH (2 knots; 1.0 m/s)
Visibility: 6 miles ( 9 km)
Ceiling: at least 12,000 feet AGL
Clouds: sky clear below 12,000 feet AGL
Weather: no significant weather observed at this time

METAR text: VVNB 231830Z 29003KT CAVOK 25/24 Q1007 NOSIG
Conditions at: VVNB (HANOI/NOIBAI INT, VN) observed 1830 UTC 23 August 2019
Temperature: 25.0°C (77°F)
Dewpoint: 24.0°C (75°F) [RH = 94%]
Pressure (altimeter): 29.73 inches Hg (1007.0 mb)
Winds: from the WNW (290 degrees) at 3 MPH (3 knots; 1.5 m/s)
Visibility: 6 or more miles (10+ km)
Ceiling: ceiling and visibility are OK
Clouds: unknown
Weather: no significant weather observed at this time

METAR text: VVNB 231800Z 31004KT 280V360 9000 NSC 25/24 Q1007 NOSIG
Conditions at: VVNB (HANOI/NOIBAI INT, VN) observed 1800 UTC 23 August 2019
Temperature: 25.0°C (77°F)
Dewpoint: 24.0°C (75°F) [RH = 94%]
Pressure (altimeter): 29.73 inches Hg (1007.0 mb)
Winds: from the NW (310 degrees) at 5 MPH (4 knots; 2.1 m/s)
Visibility: 6 miles ( 9 km)
Ceiling: at least 12,000 feet AGL
Clouds: sky clear below 12,000 feet AGL
Weather: no significant weather observed at this time

METAR text: VVNB 231730Z 30004KT 9000 NSC 25/25 Q1007 NOSIG
Conditions at: VVNB (HANOI/NOIBAI INT, VN) observed 1730 UTC 23 August 2019
Temperature: 25.0°C (77°F)
Dewpoint: 25.0°C (77°F) [RH = 100%]
Pressure (altimeter): 29.73 inches Hg (1007.0 mb)
Winds: from the WNW (300 degrees) at 5 MPH (4 knots; 2.1 m/s)
Visibility: 6 miles ( 9 km)
Ceiling: at least 12,000 feet AGL
Clouds: sky clear below 12,000 feet AGL
Weather: no significant weather observed at this time

METAR text: VVNB 231700Z 32004KT 8000 NSC 25/24 Q1008 NOSIG
Conditions at: VVNB (HANOI/NOIBAI INT, VN) observed 1700 UTC 23 August 2019
Temperature: 25.0°C (77°F)
Dewpoint: 24.0°C (75°F) [RH = 94%]
Pressure (altimeter): 29.76 inches Hg (1008.0 mb)
Winds: from the NW (320 degrees) at 5 MPH (4 knots; 2.1 m/s)
Visibility: 5 miles ( 8 km)
Ceiling: at least 12,000 feet AGL
Clouds: sky clear below 12,000 feet AGL
Weather: no significant weather observed at this time

METAR text: VVNB 231630Z 31005KT 270V350 9000 NSC 25/24 Q1008 NOSIG
Conditions at: VVNB (HANOI/NOIBAI INT, VN) observed 1630 UTC 23 August 2019
Temperature: 25.0°C (77°F)
Dewpoint: 24.0°C (75°F) [RH = 94%]
Pressure (altimeter): 29.76 inches Hg (1008.0 mb)
Winds: from the NW (310 degrees) at 6 MPH (5 knots; 2.6 m/s)
Visibility: 6 miles ( 9 km)
Ceiling: at least 12,000 feet AGL
Clouds: sky clear below 12,000 feet AGL
Weather: no significant weather observed at this time

METAR text: VVNB 231600Z 29005KT 8000 NSC 25/24 Q1008 NOSIG
Conditions at: VVNB (HANOI/NOIBAI INT, VN) observed 1600 UTC 23 August 2019
Temperature: 25.0°C (77°F)
Dewpoint: 24.0°C (75°F) [RH = 94%]
Pressure (altimeter): 29.76 inches Hg (1008.0 mb)
Winds: from the WNW (290 degrees) at 6 MPH (5 knots; 2.6 m/s)
Visibility: 5 miles ( 8 km)
Ceiling: at least 12,000 feet AGL
Clouds: sky clear below 12,000 feet AGL
Weather: no significant weather observed at this time

METAR text: VVNB 231530Z 30005KT 9000 NSC 25/24 Q1008 NOSIG
Conditions at: VVNB (HANOI/NOIBAI INT, VN) observed 1530 UTC 23 August 2019
Temperature: 25.0°C (77°F)
Dewpoint: 24.0°C (75°F) [RH = 94%]
Pressure (altimeter): 29.76 inches Hg (1008.0 mb)
Winds: from the WNW (300 degrees) at 6 MPH (5 knots; 2.6 m/s)
Visibility: 6 miles ( 9 km)
Ceiling: at least 12,000 feet AGL
Clouds: sky clear below 12,000 feet AGL
Weather: no significant weather observed at this time

METAR text: VVNB 231500Z 30005KT CAVOK 25/24 Q1008 NOSIG
Conditions at: VVNB (HANOI/NOIBAI INT, VN) observed 1500 UTC 23 August 2019
Temperature: 25.0°C (77°F)
Dewpoint: 24.0°C (75°F) [RH = 94%]
Pressure (altimeter): 29.76 inches Hg (1008.0 mb)
Winds: from the WNW (300 degrees) at 6 MPH (5 knots; 2.6 m/s)
Visibility: 6 or more miles (10+ km)
Ceiling: ceiling and visibility are OK
Clouds: unknown
Weather: no significant weather observed at this time

METAR text: VVNB 231430Z 31004KT 270V360 CAVOK 25/24 Q1008 NOSIG
Conditions at: VVNB (HANOI/NOIBAI INT, VN) observed 1430 UTC 23 August 2019
Temperature: 25.0°C (77°F)
Dewpoint: 24.0°C (75°F) [RH = 94%]
Pressure (altimeter): 29.76 inches Hg (1008.0 mb)
Winds: from the NW (310 degrees) at 5 MPH (4 knots; 2.1 m/s)
Visibility: 6 or more miles (10+ km)
Ceiling: ceiling and visibility are OK
Clouds: unknown
Weather: no significant weather observed at this time

METAR text: VVNB 231400Z 29003KT 260V320 9999 FEW013 25/24 Q1008 NOSIG
Conditions at: VVNB (HANOI/NOIBAI INT, VN) observed 1400 UTC 23 August 2019
Temperature: 25.0°C (77°F)
Dewpoint: 24.0°C (75°F) [RH = 94%]
Pressure (altimeter): 29.76 inches Hg (1008.0 mb)
Winds: from the WNW (290 degrees) at 3 MPH (3 knots; 1.5 m/s)
Visibility: 6 or more miles (10+ km)
Ceiling: at least 12,000 feet AGL
Clouds: few clouds at 1300 feet AGL
Weather: no significant weather observed at this time

METAR text: VVNB 231330Z 31005KT 290V350 9999 FEW013 25/25 Q1008 NOSIG
Conditions at: VVNB (HANOI/NOIBAI INT, VN) observed 1330 UTC 23 August 2019
Temperature: 25.0°C (77°F)
Dewpoint: 25.0°C (77°F) [RH = 100%]
Pressure (altimeter): 29.76 inches Hg (1008.0 mb)
Winds: from the NW (310 degrees) at 6 MPH (5 knots; 2.6 m/s)
Visibility: 6 or more miles (10+ km)
Ceiling: at least 12,000 feet AGL
Clouds: few clouds at 1300 feet AGL
Weather: no significant weather observed at this time

METAR text: VVNB 231300Z 29005KT 9999 -RA FEW013 BKN045 25/24 Q1008 NOSIG
Conditions at: VVNB (HANOI/NOIBAI INT, VN) observed 1300 UTC 23 August 2019
Temperature: 25.0°C (77°F)
Dewpoint: 24.0°C (75°F) [RH = 94%]
Pressure (altimeter): 29.76 inches Hg (1008.0 mb)
Winds: from the WNW (290 degrees) at 6 MPH (5 knots; 2.6 m/s)
Visibility: 6 or more miles (10+ km)
Ceiling: 4500 feet AGL
Clouds: few clouds at 1300 feet AGL
broken clouds at 4500 feet AGL
Weather: -RA  (light rain)

METAR text: VVNB 231230Z VRB03KT 9999 -RA FEW013 BKN045 25/25 Q1007 NOSIG
Conditions at: VVNB (HANOI/NOIBAI INT, VN) observed 1230 UTC 23 August 2019
Temperature: 25.0°C (77°F)
Dewpoint: 25.0°C (77°F) [RH = 100%]
Pressure (altimeter): 29.73 inches Hg (1007.0 mb)
Winds: variable direction winds at 3 MPH (3 knots; 1.5 m/s)
Visibility: 6 or more miles (10+ km)
Ceiling: 4500 feet AGL
Clouds: few clouds at 1300 feet AGL
broken clouds at 4500 feet AGL
Weather: -RA  (light rain)

METAR text: VVNB 231200Z VRB02KT 9999 -RA FEW013 BKN045 25/24 Q1007 NOSIG
Conditions at: VVNB (HANOI/NOIBAI INT, VN) observed 1200 UTC 23 August 2019
Temperature: 25.0°C (77°F)
Dewpoint: 24.0°C (75°F) [RH = 94%]
Pressure (altimeter): 29.73 inches Hg (1007.0 mb)
Winds: variable direction winds at 2 MPH (2 knots; 1.0 m/s)
Visibility: 6 or more miles (10+ km)
Ceiling: 4500 feet AGL
Clouds: few clouds at 1300 feet AGL
broken clouds at 4500 feet AGL
Weather: -RA  (light rain)

METAR text: VVNB 231130Z VRB02KT 9999 -RA FEW013 BKN045 25/24 Q1007 NOSIG
Conditions at: VVNB (HANOI/NOIBAI INT, VN) observed 1130 UTC 23 August 2019
Temperature: 25.0°C (77°F)
Dewpoint: 24.0°C (75°F) [RH = 94%]
Pressure (altimeter): 29.73 inches Hg (1007.0 mb)
Winds: variable direction winds at 2 MPH (2 knots; 1.0 m/s)
Visibility: 6 or more miles (10+ km)
Ceiling: 4500 feet AGL
Clouds: few clouds at 1300 feet AGL
broken clouds at 4500 feet AGL
Weather: -RA  (light rain)

METAR text: VVNB 231100Z 02006KT 350V050 4600 RA FEW007 FEW027CB BKN045 25/24 Q1006 TEMPO TL1115 3000 +TSRA
Conditions at: VVNB (HANOI/NOIBAI INT, VN) observed 1100 UTC 23 August 2019
Temperature: 25.0°C (77°F)
Dewpoint: 24.0°C (75°F) [RH = 94%]
Pressure (altimeter): 29.70 inches Hg (1006.0 mb)
Winds: from the NNE (20 degrees) at 7 MPH (6 knots; 3.1 m/s)
Visibility: 2.86 miles (4.60 km)
Ceiling: 4500 feet AGL
Clouds: few clouds at 700 feet AGL
few clouds at 2700 feet AGL
broken clouds at 4500 feet AGL
Weather: RA  (moderate rain)

METAR text: VVNB 231030Z 03009KT 9999 FEW007 FEW027CB BKN045 26/25 Q1007 TEMPO FM1030 TL1100 05015G25KT 3000 +TSRA
Conditions at: VVNB (HANOI/NOIBAI INT, VN) observed 1030 UTC 23 August 2019
Temperature: 26.0°C (79°F)
Dewpoint: 25.0°C (77°F) [RH = 94%]
Pressure (altimeter): 29.73 inches Hg (1007.0 mb)
Winds: from the NNE (30 degrees) at 10 MPH (9 knots; 4.6 m/s)
Visibility: 6 or more miles (10+ km)
Ceiling: 4500 feet AGL
Clouds: few clouds at 700 feet AGL
few clouds at 2700 feet AGL
broken clouds at 4500 feet AGL
Weather: no significant weather observed at this time

METAR text: VVNB 231000Z 03003KT 9999 FEW020 FEW027CB BKN045 26/24 Q1006 TEMPO FM1030 4000 TSRA
Conditions at: VVNB (HANOI/NOIBAI INT, VN) observed 1000 UTC 23 August 2019
Temperature: 26.0°C (79°F)
Dewpoint: 24.0°C (75°F) [RH = 89%]
Pressure (altimeter): 29.70 inches Hg (1006.0 mb)
Winds: from the NNE (30 degrees) at 3 MPH (3 knots; 1.5 m/s)
Visibility: 6 or more miles (10+ km)
Ceiling: 4500 feet AGL
Clouds: few clouds at 2000 feet AGL
few clouds at 2700 feet AGL
broken clouds at 4500 feet AGL
Weather: no significant weather observed at this time

METAR text: VVNB 230930Z VRB02KT 9999 -RA FEW020 FEW027CB BKN040 26/24 Q1005 NOSIG
Conditions at: VVNB (HANOI/NOIBAI INT, VN) observed 0930 UTC 23 August 2019
Temperature: 26.0°C (79°F)
Dewpoint: 24.0°C (75°F) [RH = 89%]
Pressure (altimeter): 29.68 inches Hg (1005.0 mb)
Winds: variable direction winds at 2 MPH (2 knots; 1.0 m/s)
Visibility: 6 or more miles (10+ km)
Ceiling: 4000 feet AGL
Clouds: few clouds at 2000 feet AGL
few clouds at 2700 feet AGL
broken clouds at 4000 feet AGL
Weather: -RA  (light rain)

METAR text: VVNB 230900Z 13004KT 100V180 9999 -RA FEW020 FEW027CB BKN040 26/24 Q1005 NOSIG
Conditions at: VVNB (HANOI/NOIBAI INT, VN) observed 0900 UTC 23 August 2019
Temperature: 26.0°C (79°F)
Dewpoint: 24.0°C (75°F) [RH = 89%]
Pressure (altimeter): 29.68 inches Hg (1005.0 mb)
Winds: from the SE (130 degrees) at 5 MPH (4 knots; 2.1 m/s)
Visibility: 6 or more miles (10+ km)
Ceiling: 4000 feet AGL
Clouds: few clouds at 2000 feet AGL
few clouds at 2700 feet AGL
broken clouds at 4000 feet AGL
Weather: -RA  (light rain)

METAR text: VVNB 230830Z 09011KT 3000 R11R/2000D +TSRA FEW022 FEW027CB BKN040 25/24 Q1006 TEMPO FM0900 6000 -TSRA
Conditions at: VVNB (HANOI/NOIBAI INT, VN) observed 0830 UTC 23 August 2019
Temperature: 25.0°C (77°F)
Dewpoint: 24.0°C (75°F) [RH = 94%]
Pressure (altimeter): 29.70 inches Hg (1006.0 mb)
Winds: from the E (90 degrees) at 13 MPH (11 knots; 5.7 m/s)
Visibility: 1.86 miles (2.99 km)
Ceiling: 4000 feet AGL
Clouds: few clouds at 2200 feet AGL
few clouds at 2700 feet AGL
broken clouds at 4000 feet AGL
Weather: +TSRA  (heavy rain associated with thunderstorm(s))

METAR text: VVNB 230800Z 07010G24KT 010V130 9999 -TSRA FEW022 FEW027CB 28/24 Q1006 TEMPO FM0800 TL0830 09015G28KT 1500 +TSRA
Conditions at: VVNB (HANOI/NOIBAI INT, VN) observed 0800 UTC 23 August 2019
Temperature: 28.0°C (82°F)
Dewpoint: 24.0°C (75°F) [RH = 79%]
Pressure (altimeter): 29.70 inches Hg (1006.0 mb)
Winds: from the ENE (70 degrees) at 12 MPH (10 knots; 5.1 m/s)
gusting to 28 MPH (24 knots; 12.3 m/s)
Visibility: 6 or more miles (10+ km)
Ceiling: at least 12,000 feet AGL
Clouds: few clouds at 2200 feet AGL
few clouds at 2700 feet AGL
Weather: -TSRA  (light rain associated with thunderstorm(s))

METAR text: VVNB 230730Z 31004KT 260V340 9999 -TSRA FEW022 FEW027CB 32/24 Q1005 TEMPO FM0745 12015G25KT 4000 TSRA
Conditions at: VVNB (HANOI/NOIBAI INT, VN) observed 0730 UTC 23 August 2019
Temperature: 32.0°C (90°F)
Dewpoint: 24.0°C (75°F) [RH = 63%]
Pressure (altimeter): 29.68 inches Hg (1005.0 mb)
Winds: from the NW (310 degrees) at 5 MPH (4 knots; 2.1 m/s)
Visibility: 6 or more miles (10+ km)
Ceiling: at least 12,000 feet AGL
Clouds: few clouds at 2200 feet AGL
few clouds at 2700 feet AGL
Weather: -TSRA  (light rain associated with thunderstorm(s))

METAR text: VVNB 230700Z 31006KT 280V350 9999 FEW022 32/25 Q1006 NOSIG
Conditions at: VVNB (HANOI/NOIBAI INT, VN) observed 0700 UTC 23 August 2019
Temperature: 32.0°C (90°F)
Dewpoint: 25.0°C (77°F) [RH = 67%]
Pressure (altimeter): 29.70 inches Hg (1006.0 mb)
Winds: from the NW (310 degrees) at 7 MPH (6 knots; 3.1 m/s)
Visibility: 6 or more miles (10+ km)
Ceiling: at least 12,000 feet AGL
Clouds: few clouds at 2200 feet AGL
Weather: no significant weather observed at this time

METAR text: VVNB 230630Z 31006KT 280V350 9999 FEW022 32/24 Q1006 NOSIG
Conditions at: VVNB (HANOI/NOIBAI INT, VN) observed 0630 UTC 23 August 2019
Temperature: 32.0°C (90°F)
Dewpoint: 24.0°C (75°F) [RH = 63%]
Pressure (altimeter): 29.70 inches Hg (1006.0 mb)
Winds: from the NW (310 degrees) at 7 MPH (6 knots; 3.1 m/s)
Visibility: 6 or more miles (10+ km)
Ceiling: at least 12,000 feet AGL
Clouds: few clouds at 2200 feet AGL
Weather: no significant weather observed at this time

METAR text: VVNB 230600Z VRB06KT 9999 FEW022 31/23 Q1007 NOSIG
Conditions at: VVNB (HANOI/NOIBAI INT, VN) observed 0600 UTC 23 August 2019
Temperature: 31.0°C (88°F)
Dewpoint: 23.0°C (73°F) [RH = 63%]
Pressure (altimeter): 29.73 inches Hg (1007.0 mb)
Winds: variable direction winds at 7 MPH (6 knots; 3.1 m/s)
Visibility: 6 or more miles (10+ km)
Ceiling: at least 12,000 feet AGL
Clouds: few clouds at 2200 feet AGL
Weather: no significant weather observed at this time

METAR text: VVNB 230530Z 34006KT 260V020 9999 FEW022 31/23 Q1007 NOSIG
Conditions at: VVNB (HANOI/NOIBAI INT, VN) observed 0530 UTC 23 August 2019
Temperature: 31.0°C (88°F)
Dewpoint: 23.0°C (73°F) [RH = 63%]
Pressure (altimeter): 29.73 inches Hg (1007.0 mb)
Winds: from the NNW (340 degrees) at 7 MPH (6 knots; 3.1 m/s)
Visibility: 6 or more miles (10+ km)
Ceiling: at least 12,000 feet AGL
Clouds: few clouds at 2200 feet AGL
Weather: no significant weather observed at this time

METAR text: VVNB 230500Z 33006KT 280V010 9999 FEW022 BKN045 31/24 Q1008 NOSIG
Conditions at: VVNB (HANOI/NOIBAI INT, VN) observed 0500 UTC 23 August 2019
Temperature: 31.0°C (88°F)
Dewpoint: 24.0°C (75°F) [RH = 66%]
Pressure (altimeter): 29.76 inches Hg (1008.0 mb)
Winds: from the NNW (330 degrees) at 7 MPH (6 knots; 3.1 m/s)
Visibility: 6 or more miles (10+ km)
Ceiling: 4500 feet AGL
Clouds: few clouds at 2200 feet AGL
broken clouds at 4500 feet AGL
Weather: no significant weather observed at this time

METAR text: VVNB 230430Z 31005KT 280V350 9999 FEW022 BKN045 31/24 Q1008 NOSIG
Conditions at: VVNB (HANOI/NOIBAI INT, VN) observed 0430 UTC 23 August 2019
Temperature: 31.0°C (88°F)
Dewpoint: 24.0°C (75°F) [RH = 66%]
Pressure (altimeter): 29.76 inches Hg (1008.0 mb)
Winds: from the NW (310 degrees) at 6 MPH (5 knots; 2.6 m/s)
Visibility: 6 or more miles (10+ km)
Ceiling: 4500 feet AGL
Clouds: few clouds at 2200 feet AGL
broken clouds at 4500 feet AGL
Weather: no significant weather observed at this time

METAR text: VVNB 230400Z 35004KT 310V030 9999 FEW025 BKN045 30/24 Q1008 NOSIG
Conditions at: VVNB (HANOI/NOIBAI INT, VN) observed 0400 UTC 23 August 2019
Temperature: 30.0°C (86°F)
Dewpoint: 24.0°C (75°F) [RH = 70%]
Pressure (altimeter): 29.76 inches Hg (1008.0 mb)
Winds: from the N (350 degrees) at 5 MPH (4 knots; 2.1 m/s)
Visibility: 6 or more miles (10+ km)
Ceiling: 4500 feet AGL
Clouds: few clouds at 2500 feet AGL
broken clouds at 4500 feet AGL
Weather: no significant weather observed at this time

METAR text: VVNB 230330Z 32004KT 260V020 9999 FEW020 BKN035 30/25 Q1009 NOSIG
Conditions at: VVNB (HANOI/NOIBAI INT, VN) observed 0330 UTC 23 August 2019
Temperature: 30.0°C (86°F)
Dewpoint: 25.0°C (77°F) [RH = 75%]
Pressure (altimeter): 29.79 inches Hg (1009.0 mb)
Winds: from the NW (320 degrees) at 5 MPH (4 knots; 2.1 m/s)
Visibility: 6 or more miles (10+ km)
Ceiling: 3500 feet AGL
Clouds: few clouds at 2000 feet AGL
broken clouds at 3500 feet AGL
Weather: no significant weather observed at this time

METAR text: VVNB 230300Z 30004KT 250V330 9999 FEW020 BKN035 29/24 Q1009 NOSIG
Conditions at: VVNB (HANOI/NOIBAI INT, VN) observed 0300 UTC 23 August 2019
Temperature: 29.0°C (84°F)
Dewpoint: 24.0°C (75°F) [RH = 74%]
Pressure (altimeter): 29.79 inches Hg (1009.0 mb)
Winds: from the WNW (300 degrees) at 5 MPH (4 knots; 2.1 m/s)
Visibility: 6 or more miles (10+ km)
Ceiling: 3500 feet AGL
Clouds: few clouds at 2000 feet AGL
broken clouds at 3500 feet AGL
Weather: no significant weather observed at this time

METAR text: VVNB 230230Z 29005KT 9999 FEW020 BKN035 29/25 Q1009 NOSIG
Conditions at: VVNB (HANOI/NOIBAI INT, VN) observed 0230 UTC 23 August 2019
Temperature: 29.0°C (84°F)
Dewpoint: 25.0°C (77°F) [RH = 79%]
Pressure (altimeter): 29.79 inches Hg (1009.0 mb)
Winds: from the WNW (290 degrees) at 6 MPH (5 knots; 2.6 m/s)
Visibility: 6 or more miles (10+ km)
Ceiling: 3500 feet AGL
Clouds: few clouds at 2000 feet AGL
broken clouds at 3500 feet AGL
Weather: no significant weather observed at this time

METAR text: VVNB 230200Z 30003KT 260V350 9999 FEW020 BKN035 28/24 Q1009 NOSIG
Conditions at: VVNB (HANOI/NOIBAI INT, VN) observed 0200 UTC 23 August 2019
Temperature: 28.0°C (82°F)
Dewpoint: 24.0°C (75°F) [RH = 79%]
Pressure (altimeter): 29.79 inches Hg (1009.0 mb)
Winds: from the WNW (300 degrees) at 3 MPH (3 knots; 1.5 m/s)
Visibility: 6 or more miles (10+ km)
Ceiling: 3500 feet AGL
Clouds: few clouds at 2000 feet AGL
broken clouds at 3500 feet AGL
Weather: no significant weather observed at this time

METAR text: VVNB 230130Z 32004KT 250V010 9999 FEW020 BKN035 27/25 Q1009 NOSIG
Conditions at: VVNB (HANOI/NOIBAI INT, VN) observed 0130 UTC 23 August 2019
Temperature: 27.0°C (81°F)
Dewpoint: 25.0°C (77°F) [RH = 89%]
Pressure (altimeter): 29.79 inches Hg (1009.0 mb)
Winds: from the NW (320 degrees) at 5 MPH (4 knots; 2.1 m/s)
Visibility: 6 or more miles (10+ km)
Ceiling: 3500 feet AGL
Clouds: few clouds at 2000 feet AGL
broken clouds at 3500 feet AGL
Weather: no significant weather observed at this time

Forecast for: VVNB (HANOI/NOIBAI INT, VN)
Text: TAF VVNB 241100Z 2412/2512 31005KT 8000 SCT015 BKN050
Forecast period: 1200 to 2000 UTC 24 August 2019
Forecast type: FROM: standard forecast or significant change
Winds: from the NW (310 degrees) at 6 MPH (5 knots; 2.6 m/s)
Visibility: 5 miles (8 km)
Ceiling: 5000 feet AGL
Clouds: scattered clouds at 1500 feet AGL
broken clouds at 5000 feet AGL
Weather: no significant weather forecast for this period
Text: BECMG 2420/2421 3500 BR
Forecast period: 2000 UTC 24 August 2019 to 0100 UTC 25 August 2019
Forecast type: BECOMING: Conditions expected to become as follows by 2100 UTC 24 August 2019
Winds: from the NW (310 degrees) at 6 MPH (5 knots; 2.6 m/s)
Visibility: 2.17 miles (3.49 km)
Ceiling: 5000 feet AGL
Clouds: scattered clouds at 1500 feet AGL
broken clouds at 5000 feet AGL
Weather: BR  (mist)
Text: TEMPO 2421/2424 1400 BR
Forecast period: 2100 UTC 24 August 2019 to 0000 UTC 25 August 2019
Forecast type: TEMPORARY: The following changes expected for less than half the time period
Visibility: 0.87 miles (1.40 km)
Ceiling: unknown
Clouds: missing
Weather: BR  (mist)
Text: BECMG 2501/2502 8000 NSW
Forecast period: 0100 to 1200 UTC 25 August 2019
Forecast type: BECOMING: Conditions expected to become as follows by 0200 UTC 25 August 2019
Winds: from the NW (310 degrees) at 6 MPH (5 knots; 2.6 m/s)
Visibility: 5 miles (8 km)
Ceiling: 5000 feet AGL
Clouds: scattered clouds at 1500 feet AGL
broken clouds at 5000 feet AGL
Weather: NSW  (no significant weather)
Text: TEMPO 2507/2510 4000 SHRA SCT013 FEW027CB OVC040
Forecast period: 0700 to 1000 UTC 25 August 2019
Forecast type: TEMPORARY: The following changes expected for less than half the time period
Visibility: 2.49 miles (4.01 km)
Ceiling: 4000 feet AGL
Clouds: scattered clouds at 1300 feet AGL
few clouds at 2700 feet AGL
overcast cloud deck at 4000 feet AGL
Weather: SHRA  (rain showers)